Time;durP1;ratioP1;P1;durP2;ratioP2;P2;SDS_P1;SDS_P2;PMS_P1;PMS_P2;Temp;Humidity;BMP_temperature;BMP_pressure;BME280_temperature;BME280_humidity;BME280_pressure;Samples;Min_cycle;Max_cycle;Signal;HPM_P1;HPM_P2
2022/03/18 00:09:31;;;;;;;19.6;28.2;;;;;;;0.5;50.9;100650;;;;
2022/03/18 00:19:31;;;;;;;19.6;28.2;;;;;;;0.5;51.1;100660;;;;
2022/03/18 00:29:31;;;;;;;19.6;28.2;;;;;;;0.4;51.5;100660;;;;
2022/03/18 00:40:31;;;;;;;16.9;23.9;;;;;;;0.2;51.8;100670;;;;
2022/03/18 00:52:04;;;;;;;16.9;23.9;;;;;;;0.1;52.5;100670;;;;
2022/03/18 01:02:31;;;;;;;14.8;18.5;;;;;;;-0.1;52.6;100670;;;;
2022/03/18 01:12:31;;;;;;;14.8;18.5;;;;;;;-0.3;53.8;100670;;;;
2022/03/18 01:23:31;;;;;;;14.8;18.5;;;;;;;-0.5;54.6;100660;;;;
2022/03/18 01:33:33;;;;;;;15.4;23.1;;;;;;;-0.6;54.9;100660;;;;
2022/03/18 01:43:31;;;;;;;15.4;23.1;;;;;;;-0.8;55.6;100650;;;;
2022/03/18 01:53:31;;;;;;;15.4;23.1;;;;;;;-0.9;56.3;100660;;;;
2022/03/18 02:03:31;;;;;;;14.3;18.7;;;;;;;-1.1;56.7;100660;;;;
2022/03/18 02:14:31;;;;;;;14.3;18.7;;;;;;;-1.2;56.9;100660;;;;
2022/03/18 02:24:31;;;;;;;14.3;18.7;;;;;;;-1.3;57.4;100670;;;;
2022/03/18 02:34:31;;;;;;;13.4;18.8;;;;;;;-1.5;57.8;100680;;;;
2022/03/18 02:45:31;;;;;;;13.4;18.8;;;;;;;-1.6;58.1;100680;;;;
2022/03/18 02:55:31;;;;;;;13.4;18.8;;;;;;;-1.7;58.3;100690;;;;
2022/03/18 03:16:31;;;;;;;13.3;18.8;;;;;;;-1.9;59.1;100700;;;;
2022/03/18 03:27:31;;;;;;;13.3;18.8;;;;;;;-2;59.3;100710;;;;
2022/03/18 03:38:31;;;;;;;13.5;21.4;;;;;;;-2.1;59.7;100720;;;;
2022/03/18 03:48:31;;;;;;;13.5;21.4;;;;;;;-2.1;60;100730;;;;
2022/03/18 03:59:31;;;;;;;13.9;20;;;;;;;-2.2;60.3;100730;;;;
2022/03/18 04:09:31;;;;;;;13.9;20;;;;;;;-2.3;60.5;100750;;;;
2022/03/18 04:20:33;;;;;;;13.9;20;;;;;;;-2.4;60.9;100750;;;;
2022/03/18 04:31:31;;;;;;;13.2;20.5;;;;;;;-2.5;61.6;100750;;;;
2022/03/18 04:42:31;;;;;;;13.2;20.5;;;;;;;-2.6;61.8;100770;;;;
2022/03/18 04:52:31;;;;;;;13.2;20.5;;;;;;;-2.6;62.2;100770;;;;
2022/03/18 05:02:31;;;;;;;13.3;20.4;;;;;;;-2.6;62.6;100790;;;;
2022/03/18 05:13:31;;;;;;;13.3;20.4;;;;;;;-2.5;62.7;100790;;;;
2022/03/18 05:23:32;;;;;;;13.3;20.4;;;;;;;-2.4;62.6;100800;;;;
2022/03/18 05:33:31;;;;;;;12.6;16.8;;;;;;;-2;62.2;100790;;;;
2022/03/18 05:43:31;;;;;;;12.6;16.8;;;;;;;-1.8;61.5;100800;;;;
2022/03/18 05:54:31;;;;;;;12.6;16.8;;;;;;;-1.6;61.2;100810;;;;
2022/03/18 06:05:31;;;;;;;15.7;21.6;;;;;;;-1.4;60.2;100820;;;;
2022/03/18 06:15:31;;;;;;;15.7;21.6;;;;;;;-1.3;60.3;100840;;;;
2022/03/18 06:26:33;;;;;;;15.7;21.6;;;;;;;-1.1;59.6;100850;;;;
2022/03/18 06:36:31;;;;;;;14.9;19.6;;;;;;;-0.6;58.5;100860;;;;
2022/03/18 06:47:31;;;;;;;14.9;19.6;;;;;;;-0.5;58;100870;;;;
2022/03/18 06:57:31;;;;;;;14.9;19.6;;;;;;;-0.1;57.2;100880;;;;
2022/03/18 07:08:31;;;;;;;17.4;20.2;;;;;;;0.4;55.9;100890;;;;
2022/03/18 07:19:33;;;;;;;17.4;20.2;;;;;;;0.4;55.4;100900;;;;
2022/03/18 07:29:31;;;;;;;17.1;19.3;;;;;;;0.7;55.4;100900;;;;
2022/03/18 07:40:31;;;;;;;17.1;19.3;;;;;;;1.2;53.9;100910;;;;
2022/03/18 07:50:31;;;;;;;17.1;19.3;;;;;;;1.5;53.4;100910;;;;
2022/03/18 08:00:31;;;;;;;17.2;20.6;;;;;;;2;52.3;100920;;;;
2022/03/18 08:10:31;;;;;;;17.2;20.6;;;;;;;2.3;51.4;100920;;;;
2022/03/18 08:21:33;;;;;;;17.2;20.6;;;;;;;3.2;50.4;100930;;;;
2022/03/18 08:32:31;;;;;;;17.6;21.6;;;;;;;3.6;48.4;100940;;;;
2022/03/18 08:43:31;;;;;;;17.6;21.6;;;;;;;3.9;47.8;100940;;;;
2022/03/18 08:54:31;;;;;;;17.6;21.6;;;;;;;4;46.9;100950;;;;
2022/03/18 09:05:31;;;;;;;17.5;22;;;;;;;4.6;45.9;100960;;;;
2022/03/18 09:16:33;;;;;;;17.5;22;;;;;;;4.8;45.1;100970;;;;
2022/03/18 09:26:31;;;;;;;17.5;22;;;;;;;5.2;44.6;100980;;;;
2022/03/18 09:36:31;;;;;;;17;24.8;;;;;;;5.3;44.3;100980;;;;
2022/03/18 09:47:31;;;;;;;17;24.8;;;;;;;5.6;43.7;100980;;;;
2022/03/18 09:57:31;;;;;;;17;24.8;;;;;;;5.9;43.1;100990;;;;
2022/03/18 10:07:31;;;;;;;15.9;22.2;;;;;;;6;43.5;100990;;;;
2022/03/18 10:17:31;;;;;;;15.9;22.2;;;;;;;6.4;42.6;100990;;;;
2022/03/18 10:28:32;;;;;;;14.8;19.9;;;;;;;6.7;42.4;101000;;;;
2022/03/18 10:38:32;;;;;;;14.8;19.9;;;;;;;7;41.7;101000;;;;
2022/03/18 10:49:31;;;;;;;14.8;19.9;;;;;;;7.5;40.7;101000;;;;
2022/03/18 10:59:32;;;;;;;13.9;20.1;;;;;;;7.5;40.9;101000;;;;
2022/03/18 11:11:06;;;;;;;13.9;20.1;;;;;;;7.7;40.7;101000;;;;
2022/03/18 11:20:33;;;;;;;13.9;20.1;;;;;;;8.1;40.1;101000;;;;
2022/03/18 11:30:32;;;;;;;16.1;19.2;;;;;;;8.3;40.9;100990;;;;
2022/03/18 11:40:33;;;;;;;16.1;19.2;;;;;;;8.3;39.8;100990;;;;
2022/03/18 11:51:31;;;;;;;16.1;19.2;;;;;;;8.3;41.1;100990;;;;
2022/03/18 12:01:31;;;;;;;16.2;19.9;;;;;;;8.7;39.9;100980;;;;
2022/03/18 12:11:31;;;;;;;16.2;19.9;;;;;;;8.6;39.5;100980;;;;
2022/03/18 12:22:31;;;;;;;16.2;19.9;;;;;;;9;39;100970;;;;
2022/03/18 12:33:31;;;;;;;17.6;24.5;;;;;;;9.2;38;100970;;;;
2022/03/18 12:44:31;;;;;;;17.6;24.5;;;;;;;9.5;37.5;100970;;;;
2022/03/18 12:55:31;;;;;;;17.6;24.5;;;;;;;9.4;36.1;100960;;;;
2022/03/18 13:06:31;;;;;;;14.5;18.2;;;;;;;9.7;37;100970;;;;
2022/03/18 13:16:32;;;;;;;14.5;18.2;;;;;;;9.7;35.6;100970;;;;
2022/03/18 13:26:31;;;;;;;14.5;18.2;;;;;;;9.8;36.9;100960;;;;
2022/03/18 13:36:33;;;;;;;16.9;22.1;;;;;;;10;35.3;100960;;;;
2022/03/18 13:47:31;;;;;;;16.9;22.1;;;;;;;10.1;35.6;100960;;;;
2022/03/18 13:57:31;;;;;;;11.7;16.1;;;;;;;10;34.9;100960;;;;
2022/03/18 14:07:31;;;;;;;11.7;16.1;;;;;;;10.2;33.8;100960;;;;
2022/03/18 14:17:31;;;;;;;11.7;16.1;;;;;;;10.4;34.4;100960;;;;
2022/03/18 14:27:31;;;;;;;11.1;15.3;;;;;;;10.5;32.5;100960;;;;
2022/03/18 14:37:32;;;;;;;11.1;15.3;;;;;;;10.3;32;100960;;;;
2022/03/18 14:48:31;;;;;;;11.1;15.3;;;;;;;10.3;32.6;100950;;;;
2022/03/18 14:59:32;;;;;;;9;14.1;;;;;;;10.3;30.3;100950;;;;
2022/03/18 15:09:31;;;;;;;9;14.1;;;;;;;10.3;29.5;100940;;;;
2022/03/18 15:19:31;;;;;;;9;14.1;;;;;;;10.1;29.1;100940;;;;
2022/03/18 15:29:32;;;;;;;9.4;14.5;;;;;;;10;29.3;100940;;;;
2022/03/18 15:39:31;;;;;;;9.4;14.5;;;;;;;10.9;29.6;100940;;;;
2022/03/18 15:49:35;;;;;;;9.4;14.5;;;;;;;11.9;27.1;100950;;;;
2022/03/18 16:00:31;;;;;;;9.6;14.7;;;;;;;12.8;26.2;100950;;;;
2022/03/18 16:10:33;;;;;;;9.6;14.7;;;;;;;12.4;26.2;100960;;;;
2022/03/18 16:20:31;;;;;;;9.6;14.7;;;;;;;12.2;26.8;100960;;;;
2022/03/18 16:31:33;;;;;;;9.8;14.2;;;;;;;10.2;29.1;100970;;;;
2022/03/18 16:42:34;;;;;;;9.8;14.2;;;;;;;8.6;31.2;100980;;;;
2022/03/18 16:53:33;;;;;;;9.8;14.2;;;;;;;7.4;33.4;101000;;;;
2022/03/18 17:04:31;;;;;;;13.9;18.8;;;;;;;6.5;35.8;101010;;;;
2022/03/18 17:14:31;;;;;;;13.9;18.8;;;;;;;5.8;37.4;101030;;;;
2022/03/18 17:24:31;;;;;;;13.9;18.8;;;;;;;5.3;39.1;101040;;;;
2022/03/18 17:35:32;;;;;;;16.2;21.9;;;;;;;4.6;39.9;101050;;;;
2022/03/18 17:45:32;;;;;;;16.2;21.9;;;;;;;4.1;41.2;101060;;;;
2022/03/18 17:55:31;;;;;;;16.2;21.9;;;;;;;3.7;42.6;101070;;;;
2022/03/18 18:05:31;;;;;;;18.9;26.4;;;;;;;3.4;44.1;101080;;;;
2022/03/18 18:16:32;;;;;;;18.9;26.4;;;;;;;3.3;44.8;101090;;;;
2022/03/18 18:27:32;;;;;;;25.6;32.8;;;;;;;3;44.5;101090;;;;
2022/03/18 18:37:32;;;;;;;25.6;32.8;;;;;;;2.9;44;101090;;;;
2022/03/18 18:47:32;;;;;;;25.6;32.8;;;;;;;2.7;44.4;101100;;;;
2022/03/18 18:57:32;;;;;;;17.9;23.4;;;;;;;2.7;44.2;101100;;;;
2022/03/18 19:08:31;;;;;;;17.9;23.4;;;;;;;2.4;44.8;101110;;;;
2022/03/18 19:18:31;;;;;;;17.9;23.4;;;;;;;2.2;44.8;101110;;;;
2022/03/18 19:29:31;;;;;;;21.9;29.6;;;;;;;1.9;45.4;101120;;;;
2022/03/18 19:39:31;;;;;;;21.9;29.6;;;;;;;1.6;46.4;101120;;;;
2022/03/18 19:49:31;;;;;;;21.9;29.6;;;;;;;1.3;47.2;101120;;;;
2022/03/18 20:09:32;;;;;;;24.1;34.1;;;;;;;0.6;48.7;101120;;;;
2022/03/18 20:19:32;;;;;;;24.1;34.1;;;;;;;0.3;48.9;101110;;;;
2022/03/18 20:29:32;;;;;;;25;35.7;;;;;;;-0.1;49.7;101110;;;;
2022/03/18 20:40:32;;;;;;;25;35.7;;;;;;;-0.4;50.5;101110;;;;
2022/03/18 20:51:33;;;;;;;25;35.7;;;;;;;-0.6;51.2;101120;;;;
2022/03/18 21:02:32;;;;;;;36.5;51.4;;;;;;;-0.8;51.2;101130;;;;
2022/03/18 21:12:32;;;;;;;36.5;51.4;;;;;;;-1;51.2;101130;;;;
2022/03/18 21:23:32;;;;;;;36.5;51.4;;;;;;;-0.9;52;101130;;;;
2022/03/18 21:34:32;;;;;;;30.5;46.8;;;;;;;-1.2;53;101130;;;;
2022/03/18 21:44:32;;;;;;;30.5;46.8;;;;;;;-1.5;53.6;101130;;;;
2022/03/18 21:55:32;;;;;;;30.5;46.8;;;;;;;-1.7;53.4;101140;;;;
2022/03/18 22:06:33;;;;;;;25;37.2;;;;;;;-1.6;53.2;101130;;;;
2022/03/18 22:17:32;;;;;;;25;37.2;;;;;;;-1.3;52.9;101130;;;;
2022/03/18 22:28:32;;;;;;;28.2;48.8;;;;;;;-1.6;52.4;101130;;;;
2022/03/18 22:38:32;;;;;;;28.2;48.8;;;;;;;-1.7;52.6;101130;;;;
2022/03/18 22:48:32;;;;;;;28.2;48.8;;;;;;;-1.7;52.7;101130;;;;
2022/03/18 22:58:32;;;;;;;32.3;50.3;;;;;;;-2;53.3;101140;;;;
2022/03/18 23:09:31;;;;;;;32.3;50.3;;;;;;;-2.2;54.4;101140;;;;
2022/03/18 23:19:32;;;;;;;32.3;50.3;;;;;;;-2;54.5;101140;;;;
2022/03/18 23:29:32;;;;;;;28.4;45.5;;;;;;;-2.2;55;101130;;;;
2022/03/18 23:40:32;;;;;;;28.4;45.5;;;;;;;-2.2;55.1;101130;;;;
2022/03/18 23:50:32;;;;;;;28.4;45.5;;;;;;;-2.5;54.5;101140;;;;
